createdAt,value
2019-02-09T00:01:39.358Z,86.70
2019-02-09T00:04:16.028Z,86.60
2019-02-09T00:06:51.719Z,86.90
2019-02-09T00:09:25.890Z,87.30
2019-02-09T00:12:01.948Z,87.60
2019-02-09T00:14:36.995Z,87.60
2019-02-09T00:17:13.244Z,87.60
2019-02-09T00:19:47.692Z,87.70
2019-02-09T00:22:22.901Z,87.80
2019-02-09T00:24:57.936Z,88.00
2019-02-09T00:27:33.994Z,88.30
2019-02-09T00:30:09.683Z,88.20
2019-02-09T00:32:43.682Z,88.30
2019-02-09T00:35:17.705Z,88.60
2019-02-09T00:37:52.898Z,88.70
2019-02-09T00:40:29.981Z,89.00
2019-02-09T00:43:05.683Z,90.00
2019-02-09T00:45:40.723Z,90.80
2019-02-09T00:48:18.686Z,90.70
2019-02-09T00:50:54.960Z,90.60
2019-02-09T00:53:29.685Z,90.70
2019-02-09T00:56:03.709Z,90.50
2019-02-09T00:58:38.900Z,90.40
2019-02-09T01:01:15.571Z,90.50
2019-02-09T01:03:50.201Z,90.70
2019-02-09T01:06:25.025Z,90.70
2019-02-09T01:08:59.683Z,90.40
2019-02-09T01:11:33.686Z,90.40
2019-02-09T01:14:12.582Z,90.20
2019-02-09T01:16:47.206Z,90.10
2019-02-09T01:19:22.683Z,90.00
2019-02-09T01:21:57.910Z,89.50
2019-02-09T01:24:34.560Z,89.50
2019-02-09T01:27:08.979Z,89.50
2019-02-09T01:29:44.684Z,89.20
2019-02-09T01:32:19.251Z,88.40
2019-02-09T01:34:53.701Z,88.30
2019-02-09T01:37:27.884Z,88.10
2019-02-09T01:40:03.940Z,88.10
2019-02-09T01:42:38.977Z,87.90
2019-02-09T01:45:15.683Z,87.90
2019-02-09T01:47:50.066Z,88.30
2019-02-09T01:50:28.686Z,88.50
2019-02-09T01:53:05.690Z,89.00
2019-02-09T01:55:39.702Z,89.60
2019-02-09T01:58:16.344Z,90.30
2019-02-09T02:00:52.197Z,90.40
2019-02-09T02:03:26.697Z,90.70
2019-02-09T02:06:00.691Z,91.00
2019-02-09T02:08:36.069Z,91.20
2019-02-09T02:11:11.920Z,91.20
2019-02-09T02:13:47.159Z,91.10
2019-02-09T02:16:21.697Z,90.90
2019-02-09T02:18:57.023Z,90.50
2019-02-09T02:21:33.079Z,90.30
2019-02-09T02:24:07.908Z,90.20
2019-02-09T02:26:44.171Z,90.20
2019-02-09T02:29:19.203Z,90.10
2019-02-09T02:31:54.240Z,90.00
2019-02-09T02:34:30.091Z,90.00
2019-02-09T02:37:06.148Z,89.50
2019-02-09T02:39:40.977Z,89.00
2019-02-09T02:42:16.627Z,88.90
2019-02-09T02:44:53.303Z,88.80
2019-02-09T02:47:31.198Z,88.70
2019-02-09T02:50:06.695Z,88.40
2019-02-09T02:52:43.107Z,87.80
2019-02-09T02:55:22.452Z,87.60
2019-02-09T02:57:57.713Z,87.20
2019-02-09T03:00:36.399Z,87.20
2019-02-09T03:03:11.697Z,87.20
2019-02-09T03:05:47.086Z,87.00
2019-02-09T03:08:24.983Z,86.70
2019-02-09T03:11:00.701Z,86.50
2019-02-09T03:13:34.701Z,86.40
2019-02-09T03:16:08.704Z,86.40
2019-02-09T03:18:43.709Z,86.30
2019-02-09T03:21:18.920Z,86.00
2019-02-09T03:23:59.075Z,86.00
2019-02-09T03:26:34.107Z,85.40
2019-02-09T03:29:10.164Z,85.40
2019-02-09T03:31:45.198Z,85.40
2019-02-09T03:34:20.232Z,84.70
2019-02-09T03:36:57.957Z,83.70
2019-02-09T03:39:36.238Z,82.50
2019-02-09T03:42:10.717Z,80.90
2019-02-09T03:44:44.668Z,82.00
2019-02-09T03:47:21.136Z,84.80
2019-02-09T03:49:55.143Z,87.20
2019-02-09T03:52:31.202Z,87.70
2019-02-09T03:55:07.051Z,84.50
2019-02-09T03:57:42.732Z,84.70
2019-02-09T04:00:19.987Z,80.40
2019-02-09T04:02:56.044Z,78.00
2019-02-09T04:05:30.728Z,76.40
2019-02-09T04:08:05.735Z,75.70
2019-02-09T04:10:46.674Z,74.60
2019-02-09T04:13:23.150Z,74.00
2019-02-09T04:15:58.743Z,74.00
2019-02-09T04:18:33.210Z,73.20
2019-02-09T04:21:09.064Z,73.10
2019-02-09T04:23:45.323Z,72.60
2019-02-09T04:26:19.948Z,73.00
2019-02-09T04:28:53.957Z,72.00
2019-02-09T04:34:32.286Z,72.10
2019-02-09T04:40:35.738Z,73.30
2019-02-09T04:43:11.264Z,73.20
2019-02-09T04:45:46.080Z,73.10
2019-02-09T04:52:01.747Z,73.70
2019-02-09T04:58:06.639Z,74.80
2019-02-09T05:00:42.284Z,75.10
2019-02-09T05:03:17.754Z,75.00
2019-02-09T05:09:25.341Z,75.20
2019-02-09T05:12:02.746Z,75.50
2019-02-09T05:14:37.660Z,76.00
2019-02-09T05:20:35.582Z,76.30
2019-02-09T05:26:37.766Z,77.00
2019-02-09T05:29:13.998Z,77.00
2019-02-09T05:31:49.441Z,77.30
2019-02-09T05:37:41.749Z,77.80
2019-02-09T05:43:46.242Z,78.60
2019-02-09T05:46:21.071Z,78.50
2019-02-09T05:48:56.751Z,78.60
2019-02-09T05:51:30.756Z,78.90
2019-02-09T05:54:05.966Z,78.90
2019-02-09T05:56:39.975Z,79.20
2019-02-09T05:59:15.215Z,78.80
2019-02-09T06:01:49.750Z,78.80
2019-02-09T06:04:23.764Z,78.70
2019-02-09T06:06:59.291Z,78.80
2019-02-09T06:09:34.768Z,78.90
2019-02-09T06:12:09.974Z,79.10
2019-02-09T06:14:45.752Z,79.40
2019-02-09T06:17:20.251Z,79.50
2019-02-09T06:19:56.300Z,79.50
2019-02-09T06:22:31.130Z,79.30
2019-02-09T06:25:05.990Z,79.50
2019-02-09T06:27:41.197Z,80.00
2019-02-09T06:30:19.713Z,80.30
2019-02-09T06:32:54.981Z,80.50
2019-02-09T06:35:30.199Z,80.60
2019-02-09T06:38:06.657Z,80.50
2019-02-09T06:40:41.894Z,81.00
2019-02-09T06:43:17.541Z,81.20
2019-02-09T06:45:52.371Z,81.30
2019-02-09T06:48:36.974Z,81.50
2019-02-09T06:51:12.270Z,81.40
2019-02-09T06:53:47.991Z,81.60
2019-02-09T06:56:22.539Z,81.80
2019-02-09T06:58:56.994Z,81.90
2019-02-09T07:01:30.996Z,81.90
2019-02-09T07:04:08.663Z,81.90
2019-02-09T07:06:43.288Z,82.00
2019-02-09T07:09:17.992Z,82.40
2019-02-09T07:11:53.008Z,82.50
2019-02-09T07:14:28.007Z,82.70
2019-02-09T07:17:03.219Z,83.00
2019-02-09T07:19:47.262Z,83.00
2019-02-09T07:22:22.500Z,83.00
2019-02-09T07:24:58.003Z,82.80
2019-02-09T07:27:33.006Z,82.90
2019-02-09T07:30:08.216Z,83.10
2019-02-09T07:32:43.863Z,83.10
2019-02-09T07:35:20.537Z,83.00
2019-02-09T07:37:56.006Z,83.50
2019-02-09T07:40:30.399Z,83.60
2019-02-09T07:43:05.638Z,83.90
2019-02-09T07:45:40.668Z,84.00
2019-02-09T07:48:15.500Z,83.20
2019-02-09T07:50:51.554Z,82.00
2019-02-09T07:53:28.638Z,82.20
2019-02-09T07:56:02.440Z,83.20
2019-02-09T07:58:38.294Z,83.00
2019-02-09T08:01:13.327Z,83.60
2019-02-09T08:03:48.035Z,83.70
2019-02-09T08:06:22.370Z,84.20
2019-02-09T08:08:57.030Z,84.00
2019-02-09T08:11:32.234Z,83.90
2019-02-09T08:14:28.036Z,84.40
2019-02-09T08:17:02.039Z,84.30
2019-02-09T08:19:39.457Z,83.30
2019-02-09T08:22:15.037Z,82.70
2019-02-09T08:24:50.340Z,83.80
2019-02-09T08:27:30.902Z,84.20
2019-02-09T08:30:05.332Z,84.30
2019-02-09T08:32:41.033Z,84.00
2019-02-09T08:35:15.386Z,84.60
2019-02-09T08:37:50.043Z,85.80
2019-02-09T08:40:26.070Z,86.00
2019-02-09T08:43:00.524Z,86.70
2019-02-09T08:45:36.527Z,87.20
2019-02-09T08:48:12.195Z,87.50
2019-02-09T08:50:50.535Z,87.50
2019-02-09T08:53:27.995Z,87.80
2019-02-09T08:56:10.526Z,88.00
2019-02-09T08:58:44.428Z,88.30
2019-02-09T09:01:19.287Z,88.60
2019-02-09T09:09:56.360Z,87.70
2019-02-09T09:12:39.382Z,87.40
2019-02-09T09:18:37.784Z,87.20
2019-02-09T09:21:14.253Z,87.60
2019-02-09T09:23:54.203Z,87.70
2019-02-09T09:26:32.306Z,87.10
2019-02-09T09:29:09.385Z,86.60
2019-02-09T09:31:46.064Z,86.40
2019-02-09T09:34:22.327Z,86.20
2019-02-09T09:37:00.434Z,85.80
2019-02-09T09:39:38.750Z,85.80
2019-02-09T09:42:14.189Z,86.00
2019-02-09T09:44:50.234Z,85.80
2019-02-09T09:47:30.390Z,85.30
2019-02-09T09:50:04.839Z,85.30
2019-02-09T09:52:44.754Z,85.00
2019-02-09T09:59:00.155Z,84.70
2019-02-09T10:05:16.166Z,84.50
2019-02-09T10:11:31.831Z,84.80
2019-02-09T10:14:08.926Z,84.60
2019-02-09T10:16:45.114Z,84.70
2019-02-09T10:19:21.171Z,84.40
2019-02-09T10:22:00.708Z,84.40
2019-02-09T10:24:36.842Z,84.00
2019-02-09T10:27:10.370Z,84.30
2019-02-09T10:33:26.380Z,84.10
2019-02-09T10:36:08.218Z,84.10
2019-02-09T10:38:46.072Z,83.40
2019-02-09T10:45:04.339Z,83.30
2019-02-09T10:47:41.903Z,83.20
2019-02-09T10:50:20.549Z,82.90
2019-02-09T10:52:55.173Z,82.80
2019-02-09T10:55:32.261Z,82.50
2019-02-09T10:58:06.059Z,82.30
2019-02-09T11:00:54.199Z,82.10
2019-02-09T11:03:28.855Z,82.10
2019-02-09T11:06:02.863Z,81.80
2019-02-09T11:08:36.887Z,81.90
2019-02-09T11:11:10.443Z,81.40
2019-02-09T11:13:45.271Z,81.40
2019-02-09T11:16:21.327Z,80.80
2019-02-09T11:19:00.050Z,81.00
2019-02-09T11:21:34.058Z,80.80
2019-02-09T11:24:14.859Z,80.70
2019-02-09T11:26:50.062Z,81.00
2019-02-09T11:29:25.850Z,80.60
2019-02-09T11:32:02.795Z,80.70
2019-02-09T11:34:36.874Z,80.30
2019-02-09T11:37:12.455Z,80.70
2019-02-09T11:40:07.357Z,80.30
2019-02-09T11:42:42.383Z,80.60
2019-02-09T11:45:28.068Z,80.50
2019-02-09T11:48:09.785Z,80.30
2019-02-09T11:50:42.875Z,79.90
2019-02-09T11:56:47.388Z,79.40
2019-02-09T11:59:22.863Z,79.40
2019-02-09T12:01:56.870Z,79.10
2019-02-09T12:04:31.055Z,79.30
2019-02-09T12:07:07.318Z,79.30
2019-02-09T12:09:40.849Z,78.90
2019-02-09T12:12:16.859Z,78.90
2019-02-09T12:14:51.395Z,79.20
2019-02-09T12:17:26.866Z,79.70
2019-02-09T12:20:02.079Z,79.60
2019-02-09T12:22:38.338Z,79.20
2019-02-09T12:25:14.850Z,79.00
2019-02-09T12:27:48.850Z,79.00
2019-02-09T12:30:30.401Z,79.10
2019-02-09T12:36:20.857Z,79.70
2019-02-09T12:39:02.416Z,79.30
2019-02-09T12:41:35.857Z,78.90
2019-02-09T12:47:53.243Z,78.70
2019-02-09T12:54:08.875Z,78.70
2019-02-09T12:56:45.549Z,77.90
2019-02-09T12:59:22.395Z,78.40
2019-02-09T13:05:39.874Z,78.80
2019-02-09T13:08:15.490Z,79.10
2019-02-09T13:10:50.316Z,79.30
2019-02-09T13:13:26.168Z,79.60
2019-02-09T13:16:00.859Z,78.90
2019-02-09T13:28:58.422Z,79.20
2019-02-09T13:31:34.462Z,79.40
2019-02-09T13:34:09.869Z,79.40
2019-02-09T13:36:44.869Z,79.80
2019-02-09T13:42:37.412Z,80.40
2019-02-09T13:45:17.375Z,80.50
2019-02-09T13:47:53.420Z,80.50
2019-02-09T13:50:27.871Z,80.50
2019-02-09T13:53:02.902Z,80.80
2019-02-09T13:55:37.497Z,80.90
2019-02-09T13:58:12.871Z,81.00
2019-02-09T14:00:47.153Z,81.00
2019-02-09T14:03:23.215Z,81.10
2019-02-09T14:05:58.244Z,81.30
2019-02-09T14:08:36.477Z,81.30
2019-02-09T14:11:10.567Z,81.20
2019-02-09T14:13:51.962Z,81.50
2019-02-09T14:16:28.415Z,81.50
2019-02-09T14:22:31.883Z,81.40
2019-02-09T14:28:35.454Z,81.60
2019-02-09T14:34:39.383Z,81.70
2019-02-09T14:37:15.237Z,81.50
2019-02-09T14:39:49.900Z,81.20
2019-02-09T14:45:53.379Z,81.10
2019-02-09T14:48:28.895Z,80.90
2019-02-09T14:51:06.110Z,81.20
2019-02-09T14:57:09.016Z,81.00
2019-02-09T14:59:44.663Z,81.10
2019-02-09T15:02:19.501Z,81.00
2019-02-09T15:04:53.294Z,80.70
2019-02-09T15:07:29.071Z,81.00
2019-02-09T15:13:31.072Z,80.90
2019-02-09T15:16:13.643Z,81.20
2019-02-09T15:18:51.547Z,81.50
2019-02-09T15:21:26.370Z,81.80
2019-02-09T15:24:01.404Z,82.00
2019-02-09T15:26:37.086Z,81.60
2019-02-09T15:29:11.675Z,81.70
2019-02-09T15:31:46.506Z,81.00
2019-02-09T15:34:22.562Z,81.30
2019-02-09T15:36:59.086Z,81.60
2019-02-09T15:39:34.472Z,81.60
2019-02-09T15:42:12.085Z,81.60
2019-02-09T15:44:46.998Z,81.60
2019-02-09T15:47:25.932Z,81.10
2019-02-09T15:50:05.672Z,80.60
2019-02-09T15:52:44.597Z,80.50
2019-02-09T15:55:21.682Z,80.40
2019-02-09T15:57:56.499Z,80.40
2019-02-09T16:00:33.088Z,80.50
2019-02-09T16:03:15.988Z,80.90
2019-02-09T16:05:51.431Z,80.80
2019-02-09T16:08:50.429Z,81.40
2019-02-09T16:11:25.668Z,81.00
2019-02-09T16:14:03.593Z,81.00
2019-02-09T16:16:40.651Z,82.00
2019-02-09T16:19:15.108Z,81.60
2019-02-09T16:21:50.305Z,81.20
2019-02-09T16:30:47.716Z,82.00
2019-02-09T16:36:43.224Z,82.10
2019-02-09T16:39:17.038Z,82.10
2019-02-09T16:41:53.016Z,82.20
2019-02-09T16:44:29.358Z,81.30
2019-02-09T16:47:05.415Z,81.50
2019-02-09T16:49:41.678Z,80.70
2019-02-09T16:52:18.963Z,80.20
2019-02-09T16:54:53.384Z,80.50
2019-02-09T16:57:28.416Z,80.80
2019-02-09T17:00:04.472Z,81.00
2019-02-09T17:02:41.177Z,81.20
2019-02-09T17:05:16.384Z,81.50
2019-02-09T17:07:54.489Z,81.70
2019-02-09T17:10:31.197Z,81.40
2019-02-09T17:13:07.836Z,81.20
2019-02-09T17:15:42.221Z,81.10
2019-02-09T17:18:19.174Z,80.60
2019-02-09T17:20:54.572Z,80.40
2019-02-09T17:27:03.109Z,80.40
2019-02-09T17:29:45.005Z,80.70
2019-02-09T17:32:21.368Z,80.90
2019-02-09T17:34:55.787Z,81.10
2019-02-09T17:37:31.435Z,81.50
2019-02-09T17:40:05.035Z,82.30
2019-02-09T17:42:42.117Z,82.50
2019-02-09T17:48:45.545Z,82.80
2019-02-09T17:51:22.502Z,83.10
2019-02-09T17:54:00.637Z,83.10
2019-02-09T17:56:36.062Z,83.40
2019-02-09T17:59:11.016Z,84.30
2019-02-09T18:01:48.587Z,85.20
2019-02-09T18:04:25.258Z,86.30
2019-02-09T18:07:00.839Z,86.80
2019-02-09T18:09:34.856Z,86.60
2019-02-09T18:12:13.534Z,86.40
2019-02-09T18:14:50.893Z,86.30
2019-02-09T18:17:25.272Z,86.20
2019-02-09T18:23:41.456Z,85.70
2019-02-09T18:26:15.260Z,86.10
2019-02-09T18:28:49.821Z,85.90
2019-02-09T18:31:23.279Z,86.00
2019-02-09T18:33:58.112Z,86.20
2019-02-09T18:36:33.822Z,86.10
2019-02-09T18:39:09.841Z,86.20
2019-02-09T18:41:48.534Z,86.20
2019-02-09T18:44:23.363Z,86.10
2019-02-09T18:46:58.837Z,86.40
2019-02-09T18:49:39.830Z,86.30
2019-02-09T18:52:16.658Z,86.40
2019-02-09T18:54:53.327Z,86.70
2019-02-09T18:57:29.839Z,87.10
2019-02-09T19:00:03.839Z,87.50
2019-02-09T19:02:38.990Z,87.60
2019-02-09T19:05:14.280Z,87.90
2019-02-09T19:07:49.334Z,88.40
2019-02-09T19:13:39.842Z,88.20
2019-02-09T19:16:14.847Z,88.10
2019-02-09T19:18:49.180Z,88.20
2019-02-09T19:25:04.844Z,87.80
2019-02-09T19:27:38.383Z,87.70
2019-02-09T19:30:17.858Z,87.80
2019-02-09T19:32:53.366Z,87.30
2019-02-09T19:35:28.401Z,87.10
2019-02-09T19:38:04.269Z,86.90
2019-02-09T19:40:43.180Z,86.80
2019-02-09T19:43:18.867Z,86.80
2019-02-09T19:45:55.293Z,86.90
2019-02-09T19:52:09.974Z,86.80
2019-02-09T19:57:59.565Z,86.70
2019-02-09T20:00:37.705Z,86.80
2019-02-09T20:03:13.293Z,86.90
2019-02-09T20:05:49.339Z,87.10
2019-02-09T20:14:37.065Z,87.60
2019-02-09T20:20:46.682Z,88.20
2019-02-09T20:26:53.100Z,87.80
2019-02-09T20:29:32.020Z,88.20
2019-02-09T20:32:10.842Z,88.20
2019-02-09T20:38:18.709Z,88.10
2019-02-09T20:41:03.869Z,87.70
2019-02-09T20:43:46.955Z,87.70
2019-02-09T20:46:28.523Z,87.30
2019-02-09T20:49:14.227Z,87.40
2019-02-09T20:52:00.441Z,87.30
2019-02-09T20:54:48.442Z,87.40
2019-02-09T20:57:32.099Z,87.70
2019-02-09T21:00:19.827Z,88.00
2019-02-09T21:06:33.999Z,88.10
2019-02-09T21:09:16.142Z,88.00
2019-02-09T21:11:52.357Z,87.90
2019-02-09T21:14:35.050Z,87.50
2019-02-09T21:17:26.286Z,87.50
2019-02-09T21:20:01.829Z,87.50
2019-02-09T21:28:47.549Z,87.30
2019-02-09T21:31:28.730Z,87.30
2019-02-09T21:43:10.580Z,88.40
2019-02-09T21:52:54.351Z,87.60
2019-02-09T21:58:45.086Z,87.00
2019-02-09T22:04:16.345Z,86.80
2019-02-09T22:10:31.055Z,87.10
2019-02-09T22:13:02.428Z,86.70
2019-02-09T22:15:39.207Z,86.80
2019-02-09T22:18:15.443Z,87.00
2019-02-09T22:20:54.846Z,87.00
2019-02-09T22:27:00.981Z,87.00
2019-02-09T22:33:05.334Z,86.80
2019-02-09T22:39:11.956Z,86.70
2019-02-09T22:41:49.097Z,86.60
2019-02-09T22:48:26.108Z,86.40
2019-02-09T22:51:01.100Z,86.30
2019-02-09T22:53:37.099Z,86.30
2019-02-09T22:56:13.707Z,86.10
2019-02-09T22:58:51.127Z,86.20
2019-02-09T23:01:52.656Z,86.10
2019-02-09T23:04:51.442Z,86.20
2019-02-09T23:10:42.673Z,86.10
2019-02-09T23:16:23.676Z,86.00
2019-02-09T23:18:59.806Z,86.10
2019-02-09T23:21:34.753Z,86.20
2019-02-09T23:27:33.768Z,86.00
2019-02-09T23:33:49.166Z,86.40
2019-02-09T23:40:05.588Z,86.90
2019-02-09T23:42:44.717Z,87.30
2019-02-09T23:45:22.355Z,87.20
2019-02-09T23:47:57.240Z,87.20
2019-02-09T23:50:32.890Z,87.50
2019-02-09T23:53:08.363Z,87.70
2019-02-09T23:55:46.358Z,88.00
2019-02-09T23:58:20.858Z,88.00
